sensor_id;sensor_type;location;lat;lon;timestamp;pressure;altitude;pressure_sealevel;temperature;humidity
55517;BME280;41724;51.176;-0.708;2023-12-20T00:02:23;101785.36;;;5.93;82.93
55517;BME280;41724;51.176;-0.708;2023-12-20T00:04:50;101786.79;;;6.61;82.14
55517;BME280;41724;51.176;-0.708;2023-12-20T00:07:17;101793.56;;;6.47;81.39
55517;BME280;41724;51.176;-0.708;2023-12-20T00:09:44;101793.87;;;6.66;80.17
55517;BME280;41724;51.176;-0.708;2023-12-20T00:12:11;101797.24;;;6.56;81.16
55517;BME280;41724;51.176;-0.708;2023-12-20T00:14:40;101799.59;;;6.80;80.09
55517;BME280;41724;51.176;-0.708;2023-12-20T00:17:07;101788.22;;;7.17;78.67
55517;BME280;41724;51.176;-0.708;2023-12-20T00:19:35;101786.56;;;6.88;81.41
55517;BME280;41724;51.176;-0.708;2023-12-20T00:22:02;101779.14;;;7.44;79.47
55517;BME280;41724;51.176;-0.708;2023-12-20T00:24:29;101782.65;;;6.89;80.38
55517;BME280;41724;51.176;-0.708;2023-12-20T00:26:57;101785.79;;;7.33;79.20
55517;BME280;41724;51.176;-0.708;2023-12-20T00:29:24;101782.48;;;6.87;80.88
55517;BME280;41724;51.176;-0.708;2023-12-20T00:31:51;101780.96;;;7.25;79.02
55517;BME280;41724;51.176;-0.708;2023-12-20T00:34:18;101782.98;;;7.41;78.32
55517;BME280;41724;51.176;-0.708;2023-12-20T00:36:45;101780.18;;;6.70;80.51
55517;BME280;41724;51.176;-0.708;2023-12-20T00:39:13;101783.23;;;7.51;78.78
55517;BME280;41724;51.176;-0.708;2023-12-20T00:41:40;101783.35;;;7.01;80.46
55517;BME280;41724;51.176;-0.708;2023-12-20T00:44:07;101776.38;;;6.95;80.02
55517;BME280;41724;51.176;-0.708;2023-12-20T00:46:34;101781.56;;;6.78;80.87
55517;BME280;41724;51.176;-0.708;2023-12-20T00:49:01;101782.70;;;7.35;79.38
55517;BME280;41724;51.176;-0.708;2023-12-20T00:51:28;101780.15;;;6.86;80.65
55517;BME280;41724;51.176;-0.708;2023-12-20T00:53:56;101780.32;;;6.20;82.44
55517;BME280;41724;51.176;-0.708;2023-12-20T00:56:23;101777.49;;;6.68;82.43
55517;BME280;41724;51.176;-0.708;2023-12-20T00:58:50;101759.17;;;7.11;80.98
55517;BME280;41724;51.176;-0.708;2023-12-20T01:01:17;101750.28;;;7.29;80.30
55517;BME280;41724;51.176;-0.708;2023-12-20T01:03:44;101750.36;;;5.64;84.60
55517;BME280;41724;51.176;-0.708;2023-12-20T01:06:12;101747.40;;;6.67;81.71
55517;BME280;41724;51.176;-0.708;2023-12-20T01:08:39;101747.21;;;6.91;81.30
55517;BME280;41724;51.176;-0.708;2023-12-20T01:11:06;101750.57;;;6.97;81.67
55517;BME280;41724;51.176;-0.708;2023-12-20T01:13:34;101757.91;;;7.30;80.43
55517;BME280;41724;51.176;-0.708;2023-12-20T01:16:01;101757.62;;;6.56;81.44
55517;BME280;41724;51.176;-0.708;2023-12-20T01:18:28;101757.54;;;6.92;80.44
55517;BME280;41724;51.176;-0.708;2023-12-20T01:20:55;101750.90;;;6.69;81.42
55517;BME280;41724;51.176;-0.708;2023-12-20T01:23:23;101752.07;;;6.27;84.76
55517;BME280;41724;51.176;-0.708;2023-12-20T01:25:50;101750.67;;;5.74;87.27
55517;BME280;41724;51.176;-0.708;2023-12-20T01:28:17;101746.71;;;6.08;85.56
55517;BME280;41724;51.176;-0.708;2023-12-20T01:30:44;101741.49;;;6.15;84.35
55517;BME280;41724;51.176;-0.708;2023-12-20T01:33:11;101738.43;;;5.73;87.26
55517;BME280;41724;51.176;-0.708;2023-12-20T01:35:39;101735.61;;;5.54;87.60
55517;BME280;41724;51.176;-0.708;2023-12-20T01:38:06;101735.63;;;5.09;88.22
55517;BME280;41724;51.176;-0.708;2023-12-20T01:40:33;101735.96;;;6.00;87.20
55517;BME280;41724;51.176;-0.708;2023-12-20T01:43:01;101736.86;;;5.62;88.48
55517;BME280;41724;51.176;-0.708;2023-12-20T01:45:28;101743.71;;;5.81;87.43
55517;BME280;41724;51.176;-0.708;2023-12-20T01:47:57;101746.62;;;5.58;87.42
55517;BME280;41724;51.176;-0.708;2023-12-20T01:50:24;101745.42;;;5.84;85.70
55517;BME280;41724;51.176;-0.708;2023-12-20T01:52:52;101751.08;;;5.61;89.31
55517;BME280;41724;51.176;-0.708;2023-12-20T01:55:22;101759.93;;;5.65;90.30
55517;BME280;41724;51.176;-0.708;2023-12-20T01:57:49;101749.70;;;5.13;90.47
55517;BME280;41724;51.176;-0.708;2023-12-20T02:00:16;101755.22;;;5.30;91.17
55517;BME280;41724;51.176;-0.708;2023-12-20T02:02:45;101752.54;;;5.87;89.01
55517;BME280;41724;51.176;-0.708;2023-12-20T02:05:13;101754.02;;;5.91;87.28
55517;BME280;41724;51.176;-0.708;2023-12-20T02:07:39;101755.59;;;5.70;89.18
55517;BME280;41724;51.176;-0.708;2023-12-20T02:10:08;101748.40;;;5.71;88.84
55517;BME280;41724;51.176;-0.708;2023-12-20T02:12:35;101743.62;;;5.86;88.06
55517;BME280;41724;51.176;-0.708;2023-12-20T02:15:03;101740.21;;;6.06;85.08
55517;BME280;41724;51.176;-0.708;2023-12-20T02:17:31;101747.41;;;6.17;85.23
55517;BME280;41724;51.176;-0.708;2023-12-20T02:19:58;101745.22;;;6.10;85.01
55517;BME280;41724;51.176;-0.708;2023-12-20T02:22:26;101745.54;;;6.34;83.93
55517;BME280;41724;51.176;-0.708;2023-12-20T02:24:53;101743.93;;;5.93;85.69
55517;BME280;41724;51.176;-0.708;2023-12-20T02:27:21;101749.11;;;6.11;85.25
55517;BME280;41724;51.176;-0.708;2023-12-20T02:29:50;101738.42;;;6.49;82.79
55517;BME280;41724;51.176;-0.708;2023-12-20T02:32:18;101738.37;;;6.49;82.53
55517;BME280;41724;51.176;-0.708;2023-12-20T02:34:47;101732.55;;;5.94;84.16
55517;BME280;41724;51.176;-0.708;2023-12-20T02:37:14;101730.24;;;6.84;81.86
55517;BME280;41724;51.176;-0.708;2023-12-20T02:39:41;101731.87;;;6.15;84.45
55517;BME280;41724;51.176;-0.708;2023-12-20T02:42:08;101723.19;;;6.45;82.17
55517;BME280;41724;51.176;-0.708;2023-12-20T02:44:35;101727.31;;;6.54;82.81
55517;BME280;41724;51.176;-0.708;2023-12-20T02:47:03;101730.66;;;6.20;81.71
55517;BME280;41724;51.176;-0.708;2023-12-20T02:49:30;101733.30;;;6.51;83.40
55517;BME280;41724;51.176;-0.708;2023-12-20T02:51:57;101734.74;;;6.16;83.67
55517;BME280;41724;51.176;-0.708;2023-12-20T02:54:24;101740.14;;;6.13;83.55
55517;BME280;41724;51.176;-0.708;2023-12-20T02:56:51;101737.85;;;6.37;84.64
55517;BME280;41724;51.176;-0.708;2023-12-20T02:59:19;101738.98;;;6.19;83.80
55517;BME280;41724;51.176;-0.708;2023-12-20T03:01:46;101732.96;;;5.37;87.13
55517;BME280;41724;51.176;-0.708;2023-12-20T03:04:13;101726.40;;;6.03;84.61
55517;BME280;41724;51.176;-0.708;2023-12-20T03:06:40;101730.06;;;4.93;90.48
55517;BME280;41724;51.176;-0.708;2023-12-20T03:09:07;101725.43;;;5.46;89.34
55517;BME280;41724;51.176;-0.708;2023-12-20T03:11:34;101717.73;;;5.76;88.10
55517;BME280;41724;51.176;-0.708;2023-12-20T03:14:01;101721.07;;;5.33;88.82
55517;BME280;41724;51.176;-0.708;2023-12-20T03:16:28;101721.17;;;5.20;87.98
55517;BME280;41724;51.176;-0.708;2023-12-20T03:18:56;101718.23;;;5.23;87.49
55517;BME280;41724;51.176;-0.708;2023-12-20T03:21:23;101715.88;;;6.03;84.32
55517;BME280;41724;51.176;-0.708;2023-12-20T03:23:50;101714.74;;;6.51;82.21
55517;BME280;41724;51.176;-0.708;2023-12-20T03:26:18;101715.16;;;6.80;81.49
55517;BME280;41724;51.176;-0.708;2023-12-20T03:28:45;101714.64;;;7.00;79.70
55517;BME280;41724;51.176;-0.708;2023-12-20T03:31:12;101709.37;;;6.48;80.64
55517;BME280;41724;51.176;-0.708;2023-12-20T03:33:39;101711.35;;;7.50;78.15
55517;BME280;41724;51.176;-0.708;2023-12-20T03:36:06;101714.97;;;7.41;76.98
55517;BME280;41724;51.176;-0.708;2023-12-20T03:38:33;101719.60;;;7.08;77.60
55517;BME280;41724;51.176;-0.708;2023-12-20T03:41:00;101716.05;;;6.80;77.33
55517;BME280;41724;51.176;-0.708;2023-12-20T03:43:27;101713.97;;;6.83;79.00
55517;BME280;41724;51.176;-0.708;2023-12-20T03:45:54;101718.46;;;7.63;77.09
55517;BME280;41724;51.176;-0.708;2023-12-20T03:48:21;101714.22;;;7.13;77.89
55517;BME280;41724;51.176;-0.708;2023-12-20T03:50:48;101716.65;;;6.32;80.14
55517;BME280;41724;51.176;-0.708;2023-12-20T03:53:15;101720.67;;;6.55;81.10
55517;BME280;41724;51.176;-0.708;2023-12-20T03:55:42;101729.19;;;6.68;80.30
55517;BME280;41724;51.176;-0.708;2023-12-20T03:58:09;101735.72;;;6.62;81.24
55517;BME280;41724;51.176;-0.708;2023-12-20T04:00:37;101733.46;;;6.86;79.86
55517;BME280;41724;51.176;-0.708;2023-12-20T04:03:04;101731.05;;;6.74;80.71
55517;BME280;41724;51.176;-0.708;2023-12-20T04:05:31;101738.15;;;6.53;80.60
55517;BME280;41724;51.176;-0.708;2023-12-20T04:08:01;101732.07;;;7.21;81.11
55517;BME280;41724;51.176;-0.708;2023-12-20T04:10:28;101725.13;;;7.22;79.51
55517;BME280;41724;51.176;-0.708;2023-12-20T04:12:55;101727.23;;;6.89;79.89
55517;BME280;41724;51.176;-0.708;2023-12-20T04:15:22;101723.92;;;6.90;80.28
55517;BME280;41724;51.176;-0.708;2023-12-20T04:17:50;101722.12;;;6.83;81.06
55517;BME280;41724;51.176;-0.708;2023-12-20T04:20:17;101717.67;;;6.50;81.57
55517;BME280;41724;51.176;-0.708;2023-12-20T04:22:44;101708.54;;;6.60;80.66
55517;BME280;41724;51.176;-0.708;2023-12-20T04:25:11;101702.23;;;7.00;79.56
55517;BME280;41724;51.176;-0.708;2023-12-20T04:27:38;101708.19;;;5.99;82.92
55517;BME280;41724;51.176;-0.708;2023-12-20T04:30:07;101701.71;;;5.88;84.39
55517;BME280;41724;51.176;-0.708;2023-12-20T04:32:34;101702.45;;;6.29;82.42
55517;BME280;41724;51.176;-0.708;2023-12-20T04:35:01;101703.71;;;6.34;82.31
55517;BME280;41724;51.176;-0.708;2023-12-20T04:37:28;101713.45;;;6.15;83.51
55517;BME280;41724;51.176;-0.708;2023-12-20T04:39:56;101713.64;;;6.06;83.82
55517;BME280;41724;51.176;-0.708;2023-12-20T04:42:23;101705.49;;;6.19;84.28
55517;BME280;41724;51.176;-0.708;2023-12-20T04:44:50;101705.31;;;5.85;84.20
55517;BME280;41724;51.176;-0.708;2023-12-20T04:47:17;101693.59;;;5.92;84.73
55517;BME280;41724;51.176;-0.708;2023-12-20T04:49:44;101693.85;;;5.12;87.57
55517;BME280;41724;51.176;-0.708;2023-12-20T04:52:12;101699.12;;;5.58;86.36
55517;BME280;41724;51.176;-0.708;2023-12-20T04:54:39;101698.15;;;5.85;84.30
55517;BME280;41724;51.176;-0.708;2023-12-20T04:57:06;101701.80;;;5.55;86.38
55517;BME280;41724;51.176;-0.708;2023-12-20T04:59:33;101709.43;;;5.72;85.01
55517;BME280;41724;51.176;-0.708;2023-12-20T05:02:00;101701.92;;;6.38;83.77
55517;BME280;41724;51.176;-0.708;2023-12-20T05:04:27;101707.45;;;6.52;82.73
55517;BME280;41724;51.176;-0.708;2023-12-20T05:06:54;101716.02;;;5.85;84.62
55517;BME280;41724;51.176;-0.708;2023-12-20T05:09:21;101709.66;;;5.36;89.16
55517;BME280;41724;51.176;-0.708;2023-12-20T05:11:48;101708.11;;;5.14;87.85
55517;BME280;41724;51.176;-0.708;2023-12-20T05:14:16;101716.44;;;5.74;85.31
55517;BME280;41724;51.176;-0.708;2023-12-20T05:16:43;101715.45;;;5.90;85.53
55517;BME280;41724;51.176;-0.708;2023-12-20T05:19:10;101718.96;;;6.25;84.34
55517;BME280;41724;51.176;-0.708;2023-12-20T05:21:37;101715.54;;;6.23;84.18
55517;BME280;41724;51.176;-0.708;2023-12-20T05:24:05;101722.66;;;6.39;84.42
55517;BME280;41724;51.176;-0.708;2023-12-20T05:26:32;101728.11;;;6.18;84.28
55517;BME280;41724;51.176;-0.708;2023-12-20T05:28:59;101727.99;;;6.42;84.20
55517;BME280;41724;51.176;-0.708;2023-12-20T05:31:26;101727.98;;;6.92;83.14
55517;BME280;41724;51.176;-0.708;2023-12-20T05:33:53;101722.38;;;6.37;84.88
55517;BME280;41724;51.176;-0.708;2023-12-20T05:36:21;101710.12;;;7.11;83.59
55517;BME280;41724;51.176;-0.708;2023-12-20T05:38:48;101685.07;;;7.06;84.00
55517;BME280;41724;51.176;-0.708;2023-12-20T05:41:15;101671.14;;;6.97;83.05
55517;BME280;41724;51.176;-0.708;2023-12-20T05:43:42;101679.29;;;6.64;84.52
55517;BME280;41724;51.176;-0.708;2023-12-20T05:46:10;101678.86;;;6.48;86.07
55517;BME280;41724;51.176;-0.708;2023-12-20T05:48:37;101671.77;;;5.40;88.95
55517;BME280;41724;51.176;-0.708;2023-12-20T05:51:04;101668.80;;;6.26;86.30
55517;BME280;41724;51.176;-0.708;2023-12-20T05:53:31;101664.70;;;5.68;89.06
55517;BME280;41724;51.176;-0.708;2023-12-20T05:55:58;101655.68;;;5.26;89.87
55517;BME280;41724;51.176;-0.708;2023-12-20T05:58:26;101655.43;;;5.95;91.29
55517;BME280;41724;51.176;-0.708;2023-12-20T06:00:53;101648.19;;;6.20;87.85
55517;BME280;41724;51.176;-0.708;2023-12-20T06:03:20;101649.80;;;6.37;87.43
55517;BME280;41724;51.176;-0.708;2023-12-20T06:05:47;101650.11;;;5.98;88.80
55517;BME280;41724;51.176;-0.708;2023-12-20T06:08:15;101646.52;;;5.85;89.12
55517;BME280;41724;51.176;-0.708;2023-12-20T06:10:42;101642.91;;;6.78;86.72
55517;BME280;41724;51.176;-0.708;2023-12-20T06:13:09;101650.32;;;6.61;87.34
55517;BME280;41724;51.176;-0.708;2023-12-20T06:15:36;101656.06;;;6.36;88.33
55517;BME280;41724;51.176;-0.708;2023-12-20T06:18:04;101651.77;;;5.46;90.29
55517;BME280;41724;51.176;-0.708;2023-12-20T06:20:32;101640.84;;;6.66;87.31
55517;BME280;41724;51.176;-0.708;2023-12-20T06:22:59;101649.20;;;6.26;88.65
55517;BME280;41724;51.176;-0.708;2023-12-20T06:25:26;101661.16;;;5.40;91.35
55517;BME280;41724;51.176;-0.708;2023-12-20T06:27:53;101662.58;;;6.52;88.64
55517;BME280;41724;51.176;-0.708;2023-12-20T06:30:20;101666.88;;;5.63;91.22
55517;BME280;41724;51.176;-0.708;2023-12-20T06:32:47;101662.24;;;5.47;92.67
55517;BME280;41724;51.176;-0.708;2023-12-20T06:35:15;101654.26;;;5.99;91.65
55517;BME280;41724;51.176;-0.708;2023-12-20T06:37:42;101664.27;;;5.09;93.56
55517;BME280;41724;51.176;-0.708;2023-12-20T06:40:10;101663.27;;;5.36;94.84
55517;BME280;41724;51.176;-0.708;2023-12-20T06:42:37;101664.87;;;5.87;93.51
55517;BME280;41724;51.176;-0.708;2023-12-20T06:45:05;101661.02;;;5.92;91.50
55517;BME280;41724;51.176;-0.708;2023-12-20T06:47:32;101663.84;;;5.14;94.70
55517;BME280;41724;51.176;-0.708;2023-12-20T06:50:00;101671.89;;;5.90;91.77
55517;BME280;41724;51.176;-0.708;2023-12-20T06:52:27;101665.85;;;6.59;89.11
55517;BME280;41724;51.176;-0.708;2023-12-20T06:54:54;101667.48;;;5.53;91.21
55517;BME280;41724;51.176;-0.708;2023-12-20T06:57:21;101668.87;;;6.49;88.57
55517;BME280;41724;51.176;-0.708;2023-12-20T06:59:48;101661.33;;;6.57;88.88
55517;BME280;41724;51.176;-0.708;2023-12-20T07:02:15;101658.20;;;6.37;89.13
55517;BME280;41724;51.176;-0.708;2023-12-20T07:04:43;101658.40;;;6.06;91.29
55517;BME280;41724;51.176;-0.708;2023-12-20T07:07:10;101655.96;;;6.85;87.75
55517;BME280;41724;51.176;-0.708;2023-12-20T07:09:37;101651.71;;;7.36;85.61
55517;BME280;41724;51.176;-0.708;2023-12-20T07:12:05;101648.56;;;6.47;87.95
55517;BME280;41724;51.176;-0.708;2023-12-20T07:14:32;101651.83;;;6.60;87.85
55517;BME280;41724;51.176;-0.708;2023-12-20T07:16:59;101644.53;;;6.54;89.39
55517;BME280;41724;51.176;-0.708;2023-12-20T07:19:26;101646.82;;;6.55;88.95
55517;BME280;41724;51.176;-0.708;2023-12-20T07:21:54;101655.14;;;6.71;88.94
55517;BME280;41724;51.176;-0.708;2023-12-20T07:24:21;101656.24;;;7.43;85.51
55517;BME280;41724;51.176;-0.708;2023-12-20T07:26:48;101645.92;;;6.80;86.96
55517;BME280;41724;51.176;-0.708;2023-12-20T07:29:15;101647.24;;;6.05;90.47
55517;BME280;41724;51.176;-0.708;2023-12-20T07:31:42;101644.21;;;6.43;89.84
55517;BME280;41724;51.176;-0.708;2023-12-20T07:34:10;101632.51;;;5.67;93.79
55517;BME280;41724;51.176;-0.708;2023-12-20T07:36:37;101633.45;;;5.36;96.80
55517;BME280;41724;51.176;-0.708;2023-12-20T07:39:04;101641.14;;;4.90;98.28
55517;BME280;41724;51.176;-0.708;2023-12-20T07:41:30;101634.94;;;5.43;97.34
55517;BME280;41724;51.176;-0.708;2023-12-20T07:43:58;101632.06;;;5.99;93.71
55517;BME280;41724;51.176;-0.708;2023-12-20T07:46:25;101635.65;;;6.18;93.23
55517;BME280;41724;51.176;-0.708;2023-12-20T07:48:52;101639.66;;;5.75;95.63
55517;BME280;41724;51.176;-0.708;2023-12-20T07:51:19;101630.05;;;5.02;100.00
55517;BME280;41724;51.176;-0.708;2023-12-20T07:53:46;101636.30;;;5.79;97.14
55517;BME280;41724;51.176;-0.708;2023-12-20T07:56:14;101653.23;;;6.15;93.89
55517;BME280;41724;51.176;-0.708;2023-12-20T07:58:41;101656.95;;;6.53;92.34
55517;BME280;41724;51.176;-0.708;2023-12-20T08:01:09;101661.49;;;6.13;94.25
55517;BME280;41724;51.176;-0.708;2023-12-20T08:03:36;101664.54;;;7.07;90.52
55517;BME280;41724;51.176;-0.708;2023-12-20T08:06:04;101673.21;;;7.75;87.49
55517;BME280;41724;51.176;-0.708;2023-12-20T08:08:31;101671.86;;;7.59;87.56
55517;BME280;41724;51.176;-0.708;2023-12-20T08:10:58;101665.58;;;7.23;86.88
55517;BME280;41724;51.176;-0.708;2023-12-20T08:13:25;101667.61;;;7.78;85.35
55517;BME280;41724;51.176;-0.708;2023-12-20T08:15:53;101674.87;;;7.29;87.30
55517;BME280;41724;51.176;-0.708;2023-12-20T08:18:19;101683.64;;;8.15;84.49
55517;BME280;41724;51.176;-0.708;2023-12-20T08:20:47;101679.19;;;7.22;86.51
55517;BME280;41724;51.176;-0.708;2023-12-20T08:23:14;101685.74;;;7.72;85.32
55517;BME280;41724;51.176;-0.708;2023-12-20T08:25:41;101689.66;;;8.08;86.15
55517;BME280;41724;51.176;-0.708;2023-12-20T08:28:08;101692.90;;;7.63;85.69
55517;BME280;41724;51.176;-0.708;2023-12-20T08:30:35;101690.18;;;8.40;82.25
55517;BME280;41724;51.176;-0.708;2023-12-20T08:33:03;101692.96;;;8.11;82.51
55517;BME280;41724;51.176;-0.708;2023-12-20T08:35:30;101684.14;;;7.99;84.04
55517;BME280;41724;51.176;-0.708;2023-12-20T08:37:58;101683.22;;;7.81;85.32
55517;BME280;41724;51.176;-0.708;2023-12-20T08:40:25;101681.70;;;7.37;86.19
55517;BME280;41724;51.176;-0.708;2023-12-20T08:42:52;101701.98;;;7.91;87.46
55517;BME280;41724;51.176;-0.708;2023-12-20T08:45:19;101703.24;;;8.17;84.86
55517;BME280;41724;51.176;-0.708;2023-12-20T08:47:46;101697.92;;;6.96;89.07
55517;BME280;41724;51.176;-0.708;2023-12-20T08:50:13;101696.23;;;7.62;86.43
55517;BME280;41724;51.176;-0.708;2023-12-20T08:52:40;101701.54;;;8.49;84.13
55517;BME280;41724;51.176;-0.708;2023-12-20T08:55:08;101693.35;;;7.57;87.62
55517;BME280;41724;51.176;-0.708;2023-12-20T08:57:35;101696.82;;;7.92;85.74
55517;BME280;41724;51.176;-0.708;2023-12-20T09:00:03;101693.76;;;7.99;86.22
55517;BME280;41724;51.176;-0.708;2023-12-20T09:02:29;101694.53;;;7.64;88.41
55517;BME280;41724;51.176;-0.708;2023-12-20T09:04:56;101683.92;;;8.06;86.87
55517;BME280;41724;51.176;-0.708;2023-12-20T09:07:24;101686.47;;;7.77;87.80
55517;BME280;41724;51.176;-0.708;2023-12-20T09:09:52;101678.37;;;7.62;88.18
55517;BME280;41724;51.176;-0.708;2023-12-20T09:12:20;101672.33;;;7.92;87.73
55517;BME280;41724;51.176;-0.708;2023-12-20T09:14:47;101674.69;;;8.32;86.37
55517;BME280;41724;51.176;-0.708;2023-12-20T09:17:15;101664.84;;;8.76;83.38
55517;BME280;41724;51.176;-0.708;2023-12-20T09:19:42;101668.69;;;8.20;86.56
55517;BME280;41724;51.176;-0.708;2023-12-20T09:22:09;101666.10;;;7.93;87.20
55517;BME280;41724;51.176;-0.708;2023-12-20T09:24:36;101658.70;;;8.96;84.36
55517;BME280;41724;51.176;-0.708;2023-12-20T09:27:04;101655.33;;;8.60;85.77
55517;BME280;41724;51.176;-0.708;2023-12-20T09:29:31;101653.69;;;9.47;84.05
55517;BME280;41724;51.176;-0.708;2023-12-20T09:31:58;101653.58;;;8.55;85.18
55517;BME280;41724;51.176;-0.708;2023-12-20T09:34:25;101660.74;;;8.77;83.74
55517;BME280;41724;51.176;-0.708;2023-12-20T09:36:52;101666.41;;;8.71;85.54
55517;BME280;41724;51.176;-0.708;2023-12-20T09:39:20;101664.80;;;8.20;86.92
55517;BME280;41724;51.176;-0.708;2023-12-20T09:41:57;101668.81;;;8.84;85.31
55517;BME280;41724;51.176;-0.708;2023-12-20T09:44:26;101679.77;;;9.33;85.03
55517;BME280;41724;51.176;-0.708;2023-12-20T09:46:55;101683.57;;;9.43;83.73
55517;BME280;41724;51.176;-0.708;2023-12-20T09:49:22;101682.57;;;9.23;84.42
55517;BME280;41724;51.176;-0.708;2023-12-20T09:51:50;101679.27;;;9.08;85.34
55517;BME280;41724;51.176;-0.708;2023-12-20T09:54:18;101684.00;;;9.23;84.64
55517;BME280;41724;51.176;-0.708;2023-12-20T09:56:45;101679.84;;;9.42;83.69
55517;BME280;41724;51.176;-0.708;2023-12-20T09:59:13;101669.42;;;8.67;87.46
55517;BME280;41724;51.176;-0.708;2023-12-20T10:01:41;101674.39;;;8.54;88.20
55517;BME280;41724;51.176;-0.708;2023-12-20T10:04:10;101674.40;;;9.04;85.60
55517;BME280;41724;51.176;-0.708;2023-12-20T10:06:39;101662.85;;;9.34;83.58
55517;BME280;41724;51.176;-0.708;2023-12-20T10:09:07;101680.53;;;9.08;86.18
55517;BME280;41724;51.176;-0.708;2023-12-20T10:11:35;101679.23;;;8.84;86.60
55517;BME280;41724;51.176;-0.708;2023-12-20T10:14:02;101676.22;;;8.73;86.14
55517;BME280;41724;51.176;-0.708;2023-12-20T10:16:29;101665.69;;;9.50;85.46
55517;BME280;41724;51.176;-0.708;2023-12-20T10:18:56;101666.81;;;9.63;84.13
55517;BME280;41724;51.176;-0.708;2023-12-20T10:21:23;101665.60;;;9.41;83.48
55517;BME280;41724;51.176;-0.708;2023-12-20T10:23:51;101655.34;;;9.47;84.02
55517;BME280;41724;51.176;-0.708;2023-12-20T10:26:22;101651.83;;;8.96;86.31
55517;BME280;41724;51.176;-0.708;2023-12-20T10:28:50;101655.84;;;8.51;88.16
55517;BME280;41724;51.176;-0.708;2023-12-20T10:31:28;101654.85;;;9.73;84.00
55517;BME280;41724;51.176;-0.708;2023-12-20T10:33:57;101661.20;;;9.48;84.75
55517;BME280;41724;51.176;-0.708;2023-12-20T10:36:25;101668.56;;;9.47;86.59
55517;BME280;41724;51.176;-0.708;2023-12-20T10:38:52;101664.47;;;8.37;90.40
55517;BME280;41724;51.176;-0.708;2023-12-20T10:41:25;101659.71;;;9.54;85.97
55517;BME280;41724;51.176;-0.708;2023-12-20T10:43:55;101663.28;;;8.48;90.92
55517;BME280;41724;51.176;-0.708;2023-12-20T10:46:23;101653.23;;;9.16;87.58
55517;BME280;41724;51.176;-0.708;2023-12-20T10:48:51;101649.05;;;8.79;88.82
55517;BME280;41724;51.176;-0.708;2023-12-20T10:51:20;101642.07;;;9.38;88.15
55517;BME280;41724;51.176;-0.708;2023-12-20T10:53:48;101639.01;;;9.62;86.70
55517;BME280;41724;51.176;-0.708;2023-12-20T10:56:17;101638.08;;;9.52;85.71
55517;BME280;41724;51.176;-0.708;2023-12-20T10:58:45;101632.82;;;9.25;88.03
55517;BME280;41724;51.176;-0.708;2023-12-20T11:01:13;101639.61;;;8.33;90.70
55517;BME280;41724;51.176;-0.708;2023-12-20T11:03:47;101624.69;;;8.02;90.34
55517;BME280;41724;51.176;-0.708;2023-12-20T11:06:27;101620.73;;;8.29;91.26
55517;BME280;41724;51.176;-0.708;2023-12-20T11:09:06;101608.03;;;9.30;88.30
55517;BME280;41724;51.176;-0.708;2023-12-20T11:11:45;101600.87;;;9.81;83.94
55517;BME280;41724;51.176;-0.708;2023-12-20T11:14:24;101598.23;;;9.13;86.83
55517;BME280;41724;51.176;-0.708;2023-12-20T11:17:05;101594.18;;;9.34;88.14
55517;BME280;41724;51.176;-0.708;2023-12-20T11:19:32;101583.94;;;9.70;86.20
55517;BME280;41724;51.176;-0.708;2023-12-20T11:22:04;101591.71;;;9.21;87.42
55517;BME280;41724;51.176;-0.708;2023-12-20T11:24:31;101574.00;;;8.79;90.79
55517;BME280;41724;51.176;-0.708;2023-12-20T11:27:00;101571.14;;;9.41;88.87
55517;BME280;41724;51.176;-0.708;2023-12-20T11:29:31;101555.61;;;8.82;90.61
55517;BME280;41724;51.176;-0.708;2023-12-20T11:32:00;101554.65;;;8.94;89.66
55517;BME280;41724;51.176;-0.708;2023-12-20T11:34:28;101550.97;;;9.67;88.04
55517;BME280;41724;51.176;-0.708;2023-12-20T11:36:58;101544.80;;;9.51;86.27
55517;BME280;41724;51.176;-0.708;2023-12-20T11:39:26;101539.55;;;9.19;87.37
55517;BME280;41724;51.176;-0.708;2023-12-20T11:41:55;101538.05;;;9.58;86.75
55517;BME280;41724;51.176;-0.708;2023-12-20T11:44:22;101548.82;;;9.67;84.90
55517;BME280;41724;51.176;-0.708;2023-12-20T11:46:49;101544.64;;;8.49;89.97
55517;BME280;41724;51.176;-0.708;2023-12-20T11:49:16;101544.16;;;8.21;92.61
55517;BME280;41724;51.176;-0.708;2023-12-20T11:51:44;101543.33;;;9.26;88.93
55517;BME280;41724;51.176;-0.708;2023-12-20T11:54:10;101541.78;;;9.41;86.87
55517;BME280;41724;51.176;-0.708;2023-12-20T11:56:38;101523.48;;;9.07;89.55
55517;BME280;41724;51.176;-0.708;2023-12-20T11:59:05;101507.62;;;10.19;85.99
55517;BME280;41724;51.176;-0.708;2023-12-20T12:01:35;101511.23;;;8.92;87.93
55517;BME280;41724;51.176;-0.708;2023-12-20T12:04:03;101509.94;;;9.18;89.25
55517;BME280;41724;51.176;-0.708;2023-12-20T12:06:30;101506.31;;;9.56;88.20
55517;BME280;41724;51.176;-0.708;2023-12-20T12:08:57;101500.54;;;9.17;87.39
55517;BME280;41724;51.176;-0.708;2023-12-20T12:11:24;101491.44;;;9.08;86.60
55517;BME280;41724;51.176;-0.708;2023-12-20T12:13:51;101499.34;;;9.76;86.35
55517;BME280;41724;51.176;-0.708;2023-12-20T12:16:19;101494.91;;;9.32;86.75
55517;BME280;41724;51.176;-0.708;2023-12-20T12:18:46;101486.37;;;9.38;87.51
55517;BME280;41724;51.176;-0.708;2023-12-20T12:21:19;101479.36;;;9.54;87.44
55517;BME280;41724;51.176;-0.708;2023-12-20T12:23:46;101477.28;;;10.09;84.84
55517;BME280;41724;51.176;-0.708;2023-12-20T12:26:13;101463.46;;;10.34;83.61
55517;BME280;41724;51.176;-0.708;2023-12-20T12:28:40;101461.06;;;9.62;85.46
55517;BME280;41724;51.176;-0.708;2023-12-20T12:31:12;101463.32;;;10.37;81.14
55517;BME280;41724;51.176;-0.708;2023-12-20T12:33:40;101460.54;;;9.97;83.19
55517;BME280;41724;51.176;-0.708;2023-12-20T12:36:07;101454.26;;;9.20;84.85
55517;BME280;41724;51.176;-0.708;2023-12-20T12:38:34;101449.72;;;9.60;83.51
55517;BME280;41724;51.176;-0.708;2023-12-20T12:41:02;101444.64;;;9.15;85.08
55517;BME280;41724;51.176;-0.708;2023-12-20T12:43:29;101430.63;;;9.57;86.24
55517;BME280;41724;51.176;-0.708;2023-12-20T12:45:56;101419.31;;;9.69;87.24
55517;BME280;41724;51.176;-0.708;2023-12-20T12:48:23;101425.67;;;8.70;89.58
55517;BME280;41724;51.176;-0.708;2023-12-20T12:50:50;101411.91;;;9.74;85.99
55517;BME280;41724;51.176;-0.708;2023-12-20T12:53:18;101404.31;;;10.20;84.47